Big Bear Station Historical Data
Daily Summary for January 4, 2018 Units:  English    Metric   Both
Next Day »
Daily Weekly Monthly Yearly Custom
  High: Low: Average:
Temperature: 53.6 °F 32.9 °F 44.1 °F
Dew Point: 42.5 °F 16.3 °F 32 °F
Humidity: 94% 35% 65%
Wind Speed: 9.4mph 0.0mph 1.2mph
Wind Gust: -999.0mph - -
Wind- - SW
Pressure: 30.33 in 23.60 in -
Precipitation: 0.00 in    
Historical Graphs
 
 
Tabular Data for January 4, 2018
Time Temperature Dew Point Pressure Wind Wind Speed Wind Gust Humidity Rainfall Rate (Hourly)
00:04 42.3 °F 16.6 °F 30.27 in Calm   -999.0 mph 35% 0 in
00:19 42.1 °F 16.4 °F 30.27 in Calm   -999.0 mph 35% 0 in
00:35 42.1 °F 16.4 °F 30.26 in East 2.2 mph -999.0 mph 35% 0 in
00:50 41.9 °F 16.9 °F 30.26 in SSE 1.1 mph -999.0 mph 36% 0 in
01:05 41.4 °F 16.4 °F 30.26 in Calm   -999.0 mph 36% 0 in
01:20 40.6 °F 16.3 °F 30.27 in South 1.7 mph -999.0 mph 37% 0 in
01:36 41.0 °F 16.7 °F 30.27 in Calm   -999.0 mph 37% 0 in
01:51 41.9 °F 16.9 °F 30.26 in Calm   -999.0 mph 36% 0 in
02:06 42.1 °F 17.0 °F 30.27 in NW 2.7 mph -999.0 mph 36% 0 in
02:21 43.2 °F 18.0 °F 30.27 in WNW 1.1 mph -999.0 mph 36% 0 in
02:52 43.0 °F 17.2 °F 30.27 in Calm   -999.0 mph 35% 0 in
03:07 42.6 °F 16.8 °F 30.27 in SE 1.7 mph -999.0 mph 35% 0 in
03:22 42.3 °F 16.6 °F 30.27 in Calm   -999.0 mph 35% 0 in
03:37 41.5 °F 17.1 °F 30.26 in South 2.7 mph -999.0 mph 37% 0 in
03:53 41.4 °F 17.7 °F 30.26 in South 2.2 mph -999.0 mph 38% 0 in
04:08 40.8 °F 17.7 °F 30.26 in Calm   -999.0 mph 39% 0 in
04:24 39.6 °F 17.8 °F 30.26 in Calm   -999.0 mph 41% 0 in
04:39 38.3 °F 19.3 °F 30.26 in Calm   -999.0 mph 46% 0 in
04:54 38.5 °F 21.0 °F 30.26 in Calm   -999.0 mph 49% 0 in
05:09 36.9 °F 20.4 °F 30.27 in Calm   -999.0 mph 51% 0 in
05:40 35.4 °F 19.5 °F 30.27 in Calm   -999.0 mph 52% 0 in
05:55 34.7 °F 22.6 °F 30.27 in Calm   -999.0 mph 61% 0 in
06:10 34.3 °F 19.4 °F 30.27 in Calm   -999.0 mph 54% 0 in
06:25 34.2 °F 18.4 °F 30.28 in Calm   -999.0 mph 52% 0 in
06:40 33.6 °F 18.7 °F 30.28 in Calm   -999.0 mph 54% 0 in
06:56 33.3 °F 22.4 °F 30.28 in Calm   -999.0 mph 64% 0 in
07:11 33.1 °F 21.5 °F 30.29 in Calm   -999.0 mph 62% 0 in
07:26 32.9 °F 21.7 °F 30.29 in Calm   -999.0 mph 63% 0 in
07:41 32.9 °F 22.1 °F 30.30 in Calm   -999.0 mph 64% 0 in
07:57 33.3 °F 21.7 °F 30.30 in Calm   -999.0 mph 62% 0 in
08:12 33.6 °F 22.3 °F 30.30 in Calm   -999.0 mph 63% 0 in
08:42 34.9 °F 24.3 °F 30.30 in Calm   -999.0 mph 65% 0 in
08:57 37.6 °F 29.4 °F 30.31 in Calm   -999.0 mph 72% 0 in
09:13 40.8 °F 32.5 °F 30.31 in Calm   -999.0 mph 72% 0 in
09:28 44.8 °F 38.4 °F 30.32 in Calm   -999.0 mph 78% 0 in
09:43 48.0 °F 38.7 °F 30.32 in South 2.2 mph -999.0 mph 70% 0 in
09:58 50.2 °F 38.1 °F 30.32 in NE 3.7 mph -999.0 mph 63% 0 in
10:13 51.3 °F 37.0 °F 30.32 in SSW 5.3 mph -999.0 mph 58% 0 in
10:29 51.6 °F 36.9 °F 30.32 in West 2.2 mph -999.0 mph 57% 0 in
10:44 52.3 °F 37.5 °F 30.32 in NW 2.7 mph -999.0 mph 57% 0 in
11:15 52.5 °F 38.6 °F 30.32 in NW 9.4 mph -999.0 mph 59% 0 in
11:30 52.7 °F 38.3 °F 30.31 in NW 8.3 mph -999.0 mph 58% 0 in
11:46 52.9 °F 37.6 °F 30.31 in NW 4.2 mph -999.0 mph 56% 0 in
12:01 53.4 °F 38.1 °F 30.30 in WSW 2.7 mph -999.0 mph 56% 0 in
12:17 53.6 °F 37.8 °F 30.29 in NW 3.7 mph -999.0 mph 55% 0 in
12:32 53.6 °F 37.8 °F 30.29 in NNW 3.7 mph -999.0 mph 55% 0 in
12:48 53.6 °F 37.8 °F 30.28 in WNW 5.8 mph -999.0 mph 55% 0 in
13:34 53.2 °F 39.2 °F 23.60 in Calm   -999.0 mph 59% 0 in
13:49 53.2 °F 40.5 °F 23.60 in SE 1.7 mph -999.0 mph 62% 0 in
14:04 53.1 °F 41.2 °F 30.28 in NNW 2.2 mph -999.0 mph 64% 0 in
14:20 52.5 °F 41.9 °F 30.27 in SSW 4.7 mph -999.0 mph 67% 0 in
14:35 52.0 °F 42.1 °F 30.28 in Calm   -999.0 mph 69% 0 in
14:50 51.6 °F 41.0 °F 30.27 in Calm   -999.0 mph 67% 0 in
15:05 51.1 °F 42.0 °F 30.27 in Calm   -999.0 mph 71% 0 in
15:20 50.7 °F 41.3 °F 30.27 in WNW 2.7 mph -999.0 mph 70% 0 in
15:36 50.5 °F 40.7 °F 30.28 in North 1.7 mph -999.0 mph 69% 0 in
15:51 50.0 °F 41.3 °F 30.28 in WNW 4.7 mph -999.0 mph 72% 0 in
16:06 49.3 °F 41.0 °F 30.28 in NNE 4.7 mph -999.0 mph 73% 0 in
16:21 48.4 °F 41.2 °F 30.28 in Calm   -999.0 mph 76% 0 in
16:36 47.8 °F 41.9 °F 30.28 in ESE 2.2 mph -999.0 mph 80% 0 in
16:52 47.7 °F 42.2 °F 30.28 in Calm   -999.0 mph 81% 0 in
17:23 47.1 °F 42.5 °F 30.29 in Calm   -999.0 mph 84% 0 in
17:38 46.6 °F 42.3 °F 30.29 in Calm   -999.0 mph 85% 0 in
17:53 45.9 °F 41.6 °F 30.29 in Calm   -999.0 mph 85% 0 in
18:08 45.3 °F 41.7 °F 30.29 in NNW 3.2 mph -999.0 mph 87% 0 in
18:23 45.3 °F 42.0 °F 30.30 in Calm   -999.0 mph 88% 0 in
18:39 45.0 °F 41.7 °F 30.30 in Calm   -999.0 mph 88% 0 in
18:54 44.8 °F 41.5 °F 30.29 in Calm   -999.0 mph 88% 0 in
19:09 44.4 °F 41.4 °F 30.30 in Calm   -999.0 mph 89% 0 in
19:24 44.1 °F 41.4 °F 30.30 in Calm   -999.0 mph 90% 0 in
19:40 43.7 °F 41.0 °F 30.30 in Calm   -999.0 mph 90% 0 in
19:55 43.5 °F 41.0 °F 30.30 in Calm   -999.0 mph 91% 0 in
20:26 43.0 °F 40.8 °F 30.31 in Calm   -999.0 mph 92% 0 in
20:56 43.2 °F 41.3 °F 30.31 in Calm   -999.0 mph 93% 0 in
21:11 42.4 °F 40.2 °F 30.31 in Calm   -999.0 mph 92% 0 in
21:27 42.6 °F 40.7 °F 30.32 in Calm   -999.0 mph 93% 0 in
21:42 43.5 °F 41.6 °F 30.31 in Calm   -999.0 mph 93% 0 in
21:57 43.0 °F 40.8 °F 30.32 in East 1.1 mph -999.0 mph 92% 0 in
22:12 43.0 °F 40.8 °F 30.32 in Calm   -999.0 mph 92% 0 in
22:43 43.3 °F 41.4 °F 30.32 in Calm   -999.0 mph 93% 0 in
22:58 43.5 °F 41.9 °F 30.32 in Calm   -999.0 mph 94% 0 in
23:13 43.3 °F 41.7 °F 30.32 in Calm   -999.0 mph 94% 0 in
23:28 43.0 °F 41.1 °F 30.33 in Calm   -999.0 mph 93% 0 in
23:43 42.6 °F 40.7 °F 30.32 in WSW 1.1 mph -999.0 mph 93% 0 in
Big Bear CA Weather